Hallowell, Maine
Current Conditions -  °F | °C
As of 2:53 PM on Monday 22 Dec 2014 (Local Time) from KAUG Reporting Station
Overcast Overcast  
Wind Chill: 28°   Ceiling: 4900
Heat Index: 33°   Visibility: 10mi
Dew Point: 26°   Wind: 6mph
Humidity: 75%   Direction: 320°NW
Pressure: 30.39"   Gusts: NA
Location:  44.29°N, 69.79°W
Report Text: KAUG 221953Z AUTO 32005KT 10SM OVC049 01/M03 A3039 RMK AO2 SLP297 T00061033
Loading
Personal Weather Stations






























Interactive Weather Map New forecast layout! Learn more

10-Day Weather Forecast

Advertisements
Track Severe Weather on mobile